Time;durP1;ratioP1;P1;durP2;ratioP2;P2;SDS_P1;SDS_P2;PMS_P1;PMS_P2;Temp;Humidity;BMP_temperature;BMP_pressure;BME280_temperature;BME280_humidity;BME280_pressure;Samples;Min_cycle;Max_cycle;Signal;HPM_P1;HPM_P2
2022/05/30 00:01:43;;;;;;;6.25;4.03;;;16.60;62.40;;;;;;5084807;28;20182;-60
2022/05/30 00:04:09;;;;;;;6.18;4.13;;;16.60;62.20;;;;;;5075878;28;20016;-60
2022/05/30 00:06:35;;;;;;;4.50;4.03;;;16.70;62.20;;;;;;5085472;28;20099;-60
2022/05/30 00:09:02;;;;;;;7.97;4.28;;;16.60;62.20;;;;;;5082387;28;20099;-60
2022/05/30 00:11:28;;;;;;;6.32;3.83;;;16.60;62.10;;;;;;5075888;28;20028;-60
2022/05/30 00:13:54;;;;;;;4.65;3.40;;;16.50;62.10;;;;;;5081245;28;20020;-60
2022/05/30 00:16:23;;;;;;;5.05;3.20;;;16.40;62.20;;;;;;5087122;28;20032;-60
2022/05/30 00:18:49;;;;;;;3.60;2.95;;;16.40;62.30;;;;;;5076903;28;20037;-59
2022/05/30 00:21:20;;;;;;;4.47;2.63;;;16.40;62.30;;;;;;5066749;28;20393;-59
2022/05/30 00:23:47;;;;;;;5.22;2.83;;;16.40;62.40;;;;;;5080824;28;20070;-59
2022/05/30 00:26:13;;;;;;;6.03;2.88;;;16.40;62.10;;;;;;5090855;28;20126;-59
2022/05/30 00:28:39;;;;;;;4.93;2.70;;;16.50;62.10;;;;;;5088151;28;20032;-60
2022/05/30 00:31:09;;;;;;;5.97;2.85;;;16.40;62.00;;;;;;5086826;28;20024;-60
2022/05/30 00:33:35;;;;;;;3.95;2.22;;;16.50;61.90;;;;;;5092262;28;20062;-60
2022/05/30 00:36:00;;;;;;;4.97;2.28;;;16.50;61.70;;;;;;5094463;28;20020;-60
2022/05/30 00:38:26;;;;;;;4.53;2.60;;;16.40;61.70;;;;;;5092547;28;20049;-60
2022/05/30 00:40:52;;;;;;;4.10;2.55;;;16.40;61.80;;;;;;5092838;28;20032;-61
2022/05/30 00:43:25;;;;;;;2.88;1.83;;;16.40;61.60;;;;;;5083748;28;20020;-60
2022/05/30 00:45:51;;;;;;;2.40;1.70;;;16.50;61.40;;;;;;5072938;28;20040;-60
2022/05/30 00:48:20;;;;;;;3.42;1.83;;;16.50;61.10;;;;;;5081597;28;20047;-60
2022/05/30 00:50:49;;;;;;;3.10;1.70;;;16.40;60.90;;;;;;5083220;28;20094;-60
2022/05/30 00:53:15;;;;;;;3.72;1.77;;;16.40;61.00;;;;;;5092305;28;20059;-59
2022/05/30 00:55:41;;;;;;;2.33;1.73;;;16.50;60.60;;;;;;5089483;28;20048;-59
2022/05/30 00:58:11;;;;;;;4.45;1.92;;;16.40;60.60;;;;;;5077279;28;20012;-58
2022/05/30 01:00:37;;;;;;;3.20;1.70;;;16.40;60.60;;;;;;5086152;28;20029;-61
2022/05/30 01:08:43;;;;;;;3.38;1.70;;;16.30;60.70;;;;;;5086684;28;20028;-60
2022/05/30 01:11:09;;;;;;;3.00;1.33;;;16.30;60.70;;;;;;5075283;28;20059;-58
2022/05/30 01:13:37;;;;;;;5.70;1.60;;;16.40;60.80;;;;;;5085492;28;20064;-60
2022/05/30 01:16:03;;;;;;;3.35;1.63;;;16.30;60.60;;;;;;5069514;28;20108;-60
2022/05/30 01:18:39;;;;;;;2.35;1.55;;;16.30;60.90;;;;;;5082158;28;20096;-60
2022/05/30 01:21:51;;;;;;;2.10;1.50;;;16.30;60.90;;;;;;5074233;28;20389;-61
2022/05/30 01:24:44;;;;;;;3.22;1.40;;;16.20;61.00;;;;;;5062787;28;20090;-60
2022/05/30 01:27:28;;;;;;;3.28;1.50;;;16.20;61.00;;;;;;5053887;28;20024;-58
2022/05/30 01:30:00;;;;;;;3.42;1.73;;;16.20;61.00;;;;;;5064481;28;20354;-59
2022/05/30 01:32:26;;;;;;;3.67;1.60;;;16.20;61.20;;;;;;5090627;28;20028;-59
2022/05/30 01:34:52;;;;;;;2.00;1.50;;;16.10;61.40;;;;;;5074229;28;20128;-60
2022/05/30 01:37:17;;;;;;;2.58;1.55;;;16.00;61.70;;;;;;5059779;28;20523;-59
2022/05/30 01:39:43;;;;;;;5.15;1.50;;;16.00;61.70;;;;;;5073469;28;20028;-60
2022/05/30 01:42:09;;;;;;;1.90;1.50;;;16.00;61.80;;;;;;5078656;28;20042;-57
2022/05/30 01:44:36;;;;;;;4.45;1.52;;;16.10;61.60;;;;;;5080067;28;20036;-60
2022/05/30 01:47:01;;;;;;;2.92;1.60;;;16.10;62.20;;;;;;5076790;28;20024;-61
2022/05/30 01:49:27;;;;;;;2.03;1.40;;;16.10;61.50;;;;;;5076532;28;20123;-60
2022/05/30 01:51:54;;;;;;;3.00;1.42;;;16.20;61.30;;;;;;5077154;28;20040;-61
2022/05/30 01:54:21;;;;;;;2.80;1.60;;;16.20;61.30;;;;;;5083675;28;20102;-60
2022/05/30 01:56:46;;;;;;;2.08;1.27;;;16.30;61.10;;;;;;5083982;28;20024;-59
2022/05/30 01:59:12;;;;;;;3.10;1.80;;;16.20;61.00;;;;;;5084820;28;20035;-60
2022/05/30 02:01:42;;;;;;;2.00;1.38;;;16.20;61.20;;;;;;5089769;28;20251;-61
2022/05/30 02:04:08;;;;;;;2.63;1.50;;;16.20;61.20;;;;;;5090402;28;20040;-60
2022/05/30 02:06:35;;;;;;;3.78;1.52;;;16.20;61.20;;;;;;5071607;28;20017;-60
2022/05/30 02:09:01;;;;;;;3.88;1.55;;;16.20;61.30;;;;;;5085503;28;20027;-59
2022/05/30 02:11:27;;;;;;;4.50;1.90;;;16.20;61.40;;;;;;5078273;28;20054;-59
2022/05/30 02:13:53;;;;;;;3.47;1.40;;;16.30;61.50;;;;;;5082643;28;20517;-59
2022/05/30 02:19:05;;;;;;;2.22;1.60;;;16.30;61.50;;;;;;5084077;28;20120;-60
2022/05/30 02:21:32;;;;;;;3.95;1.52;;;16.30;61.60;;;;;;5081677;28;20362;-60
2022/05/30 02:23:58;;;;;;;4.65;1.58;;;16.30;61.50;;;;;;5060484;28;20020;-60
2022/05/30 02:26:24;;;;;;;2.30;1.30;;;16.20;61.40;;;;;;5071681;28;20067;-60
2022/05/30 02:28:50;;;;;;;1.77;1.30;;;16.20;61.60;;;;;;5083003;28;20381;-60
2022/05/30 02:31:16;;;;;;;1.55;1.17;;;16.10;61.50;;;;;;5071025;28;20495;-58
2022/05/30 02:36:41;;;;;;;2.25;1.38;;;16.00;61.70;;;;;;5074043;28;20161;-60
2022/05/30 02:39:26;;;;;;;3.22;1.20;;;15.90;61.60;;;;;;5061179;28;20062;-61
2022/05/30 02:41:53;;;;;;;1.65;1.10;;;15.90;61.80;;;;;;5078355;28;20480;-60
2022/05/30 02:44:20;;;;;;;2.88;1.30;;;15.80;61.90;;;;;;5089674;28;20115;-60
2022/05/30 02:46:51;;;;;;;1.55;1.30;;;15.70;62.10;;;;;;5080993;28;20468;-59
2022/05/30 02:49:17;;;;;;;1.98;1.30;;;15.70;62.10;;;;;;5088071;28;20393;-58
2022/05/30 02:51:43;;;;;;;3.10;1.40;;;15.60;62.20;;;;;;5079557;28;20458;-61
2022/05/30 02:54:11;;;;;;;2.70;1.33;;;15.50;62.30;;;;;;5089176;28;20028;-61
2022/05/30 02:56:37;;;;;;;2.85;1.30;;;15.50;62.60;;;;;;5081661;28;20027;-60
2022/05/30 02:59:04;;;;;;;1.90;1.30;;;15.50;62.70;;;;;;5078706;28;20049;-59
2022/05/30 03:01:31;;;;;;;2.97;1.50;;;15.40;62.80;;;;;;5077493;28;20020;-59
2022/05/30 03:04:01;;;;;;;1.63;1.10;;;15.40;63.00;;;;;;5083341;28;20021;-58
2022/05/30 03:06:27;;;;;;;2.35;1.40;;;15.40;63.00;;;;;;5085944;28;20039;-59
2022/05/30 03:08:53;;;;;;;3.42;2.50;;;15.30;63.20;;;;;;5081464;28;20123;-60
2022/05/30 03:11:18;;;;;;;3.60;1.58;;;15.30;63.40;;;;;;5068392;28;20049;-58
2022/05/30 03:13:44;;;;;;;2.40;1.52;;;15.20;63.40;;;;;;5089374;28;20103;-60
2022/05/30 03:16:10;;;;;;;3.03;1.35;;;15.20;63.50;;;;;;5089317;28;20494;-61
2022/05/30 03:18:36;;;;;;;5.13;1.70;;;15.30;63.40;;;;;;5087866;28;20016;-60
2022/05/30 03:21:03;;;;;;;2.72;1.80;;;15.30;63.10;;;;;;5084754;28;20043;-58
2022/05/30 03:23:29;;;;;;;5.35;1.75;;;15.30;63.20;;;;;;5087313;28;20469;-59
2022/05/30 03:25:55;;;;;;;2.47;1.50;;;15.20;63.20;;;;;;5086614;28;20040;-60
2022/05/30 03:28:21;;;;;;;4.68;1.50;;;15.30;63.30;;;;;;5074680;28;20061;-59
2022/05/30 03:30:46;;;;;;;2.22;1.35;;;15.20;63.50;;;;;;5086474;28;20024;-60
2022/05/30 03:33:12;;;;;;;2.40;1.33;;;15.20;63.70;;;;;;5086411;28;20376;-60
2022/05/30 03:35:39;;;;;;;6.53;1.90;;;15.10;63.70;;;;;;5056070;28;20032;-61
2022/05/30 03:38:05;;;;;;;2.78;1.60;;;15.20;63.70;;;;;;5075329;28;20035;-61
2022/05/30 03:40:31;;;;;;;1.75;1.30;;;15.30;63.60;;;;;;5084210;28;20020;-60
2022/05/30 03:42:58;;;;;;;2.80;1.50;;;15.40;63.40;;;;;;5087812;28;20016;-61
2022/05/30 03:45:24;;;;;;;2.00;1.40;;;15.50;63.10;;;;;;5038538;28;1174195;-60
2022/05/30 03:47:50;;;;;;;3.08;1.98;;;15.50;62.70;;;;;;5081530;28;20556;-60
2022/05/30 03:50:21;;;;;;;2.47;1.80;;;15.50;62.80;;;;;;5067038;28;20104;-59
2022/05/30 03:52:47;;;;;;;3.28;1.50;;;15.50;62.60;;;;;;5085262;28;20107;-60
2022/05/30 03:55:15;;;;;;;3.40;1.70;;;15.60;62.40;;;;;;5090936;28;20120;-60
2022/05/30 03:57:42;;;;;;;2.53;1.50;;;15.60;62.40;;;;;;5076938;28;20032;-60
2022/05/30 04:00:20;;;;;;;1.40;1.30;;;15.70;62.20;;;;;;5091210;28;20020;-60
2022/05/30 04:02:49;;;;;;;3.35;1.45;;;15.80;62.00;;;;;;5074250;28;20029;-59
2022/05/30 04:05:19;;;;;;;2.20;1.60;;;15.80;61.70;;;;;;5081593;28;20031;-59
2022/05/30 04:07:45;;;;;;;1.70;1.30;;;15.90;61.30;;;;;;5085468;28;20016;-60
2022/05/30 04:10:12;;;;;;;2.53;1.42;;;15.80;61.10;;;;;;5080825;28;20043;-60
2022/05/30 04:12:38;;;;;;;3.28;1.65;;;15.80;61.00;;;;;;5084086;28;20025;-59
2022/05/30 04:15:06;;;;;;;2.95;1.77;;;15.80;61.30;;;;;;5083181;28;20042;-60
2022/05/30 04:17:35;;;;;;;3.72;1.80;;;15.80;61.30;;;;;;5076729;28;20020;-59
2022/05/30 04:20:00;;;;;;;3.05;1.40;;;15.80;61.30;;;;;;5059259;28;20031;-60
2022/05/30 04:22:26;;;;;;;2.90;1.50;;;15.70;61.20;;;;;;5082448;28;20024;-62
2022/05/30 04:24:53;;;;;;;2.17;1.30;;;15.80;61.40;;;;;;5090140;28;20523;-60
2022/05/30 04:27:19;;;;;;;3.80;1.55;;;15.70;61.30;;;;;;5090678;28;20031;-56
2022/05/30 04:29:45;;;;;;;2.53;1.38;;;15.80;61.30;;;;;;5077003;28;20025;-59
2022/05/30 04:32:10;;;;;;;2.63;1.58;;;15.80;61.20;;;;;;5082459;28;20381;-60
2022/05/30 04:34:36;;;;;;;5.50;1.73;;;15.70;61.30;;;;;;5084000;28;20481;-60
2022/05/30 04:37:03;;;;;;;5.47;1.60;;;15.60;61.40;;;;;;5081756;28;20103;-60
2022/05/30 04:39:29;;;;;;;2.33;1.48;;;15.60;61.90;;;;;;5073012;28;20025;-61
2022/05/30 04:41:55;;;;;;;3.05;2.05;;;15.60;61.70;;;;;;5083853;28;20030;-59
2022/05/30 04:44:39;;;;;;;3.95;1.90;;;15.60;61.80;;;;;;5077384;28;20485;-56
2022/05/30 04:47:06;;;;;;;;;;;15.70;61.70;;;;;;5067578;28;20456;-60
2022/05/30 04:49:31;;;;;;;2.17;1.35;;;15.70;61.70;;;;;;5080581;28;20008;-60
2022/05/30 04:51:57;;;;;;;2.28;1.50;;;15.80;61.30;;;;;;5094239;28;20103;-60
2022/05/30 04:54:24;;;;;;;3.60;1.50;;;15.70;61.20;;;;;;5092158;28;20027;-57
2022/05/30 04:56:50;;;;;;;2.55;1.52;;;15.70;61.30;;;;;;5087406;28;20125;-58
2022/05/30 04:59:16;;;;;;;2.13;1.55;;;15.80;61.50;;;;;;5091460;28;20054;-60
2022/05/30 05:01:42;;;;;;;3.67;2.30;;;15.90;61.40;;;;;;5071543;28;20034;-60
2022/05/30 05:04:11;;;;;;;5.85;2.38;;;15.90;61.10;;;;;;5067221;28;20355;-59
2022/05/30 05:06:37;;;;;;;5.65;2.00;;;16.00;61.10;;;;;;5082029;28;20044;-60
2022/05/30 05:09:12;;;;;;;5.32;2.08;;;16.10;60.70;;;;;;5072338;28;20031;-60
2022/05/30 05:11:38;;;;;;;2.83;1.98;;;16.10;60.50;;;;;;5086298;28;20073;-59
2022/05/30 05:14:05;;;;;;;4.22;2.40;;;16.10;60.70;;;;;;5082304;28;20480;-60
2022/05/30 05:16:31;;;;;;;4.25;2.00;;;16.20;60.60;;;;;;5088538;28;20016;-60
2022/05/30 05:18:57;;;;;;;7.25;1.80;;;16.30;60.20;;;;;;5084629;28;20081;-60
2022/05/30 05:21:29;;;;;;;2.55;1.75;;;16.40;59.90;;;;;;5087256;28;20047;-59
2022/05/30 05:23:56;;;;;;;3.92;2.03;;;16.40;59.60;;;;;;5082339;28;20039;-60
2022/05/30 05:26:23;;;;;;;7.03;2.50;;;16.20;60.40;;;;;;5077923;28;20031;-59
2022/05/30 05:28:49;;;;;;;4.70;2.13;;;16.50;60.40;;;;;;5083793;28;20036;-61
2022/05/30 05:31:21;;;;;;;5.43;2.03;;;16.80;59.90;;;;;;5085054;28;20031;-61
2022/05/30 05:33:47;;;;;;;4.88;2.00;;;17.10;59.00;;;;;;5089332;28;20036;-61
2022/05/30 05:36:18;;;;;;;2.47;1.67;;;17.30;58.30;;;;;;5084550;28;20051;-62
2022/05/30 05:38:44;;;;;;;3.50;1.70;;;17.40;57.20;;;;;;5087543;28;20469;-60
2022/05/30 05:41:09;;;;;;;2.17;1.85;;;17.30;57.20;;;;;;5083827;28;20028;-61
2022/05/30 05:43:35;;;;;;;4.40;1.90;;;17.40;56.90;;;;;;5070696;28;20439;-60
2022/05/30 05:46:01;;;;;;;3.50;1.90;;;17.30;56.80;;;;;;5082285;28;20389;-62
2022/05/30 05:48:27;;;;;;;2.75;1.70;;;17.20;57.10;;;;;;5074148;28;20349;-64
2022/05/30 05:50:52;;;;;;;4.88;2.10;;;17.10;57.10;;;;;;5069089;28;20112;-60
2022/05/30 05:53:18;;;;;;;3.05;1.80;;;17.20;57.30;;;;;;5063058;28;20028;-61
2022/05/30 05:55:44;;;;;;;7.55;2.58;;;17.20;57.20;;;;;;5084772;28;20547;-62
2022/05/30 05:58:09;;;;;;;5.45;2.53;;;17.20;56.60;;;;;;5086002;28;20047;-61
2022/05/30 06:00:35;;;;;;;5.85;2.42;;;17.00;56.80;;;;;;5071840;28;20381;-61
2022/05/30 06:03:00;;;;;;;3.08;2.10;;;16.90;57.20;;;;;;5071281;28;20103;-61
2022/05/30 06:05:26;;;;;;;3.58;2.55;;;16.80;57.20;;;;;;5060723;28;20077;-57
2022/05/30 06:07:52;;;;;;;4.65;2.20;;;16.80;57.40;;;;;;5084958;28;20167;-62
2022/05/30 06:10:19;;;;;;;4.93;2.85;;;16.90;57.30;;;;;;5084732;28;20043;-62
2022/05/30 06:12:46;;;;;;;5.95;2.80;;;16.90;57.00;;;;;;5078044;28;20578;-63
2022/05/30 06:15:14;;;;;;;5.28;2.70;;;17.00;56.90;;;;;;5060646;28;20405;-62
2022/05/30 06:17:45;;;;;;;7.97;2.63;;;16.90;56.70;;;;;;5049154;28;20135;-63
2022/05/30 06:20:13;;;;;;;3.95;2.20;;;17.00;56.90;;;;;;5067074;28;20051;-66
2022/05/30 06:22:39;;;;;;;4.30;2.80;;;17.10;56.50;;;;;;5079887;28;20069;-63
2022/05/30 06:25:06;;;;;;;5.55;3.00;;;17.20;56.40;;;;;;5078246;28;20027;-62
2022/05/30 06:27:32;;;;;;;4.40;2.70;;;17.30;56.10;;;;;;5081518;28;20024;-60
2022/05/30 06:29:58;;;;;;;6.32;2.70;;;17.30;55.80;;;;;;5071729;28;20103;-61
2022/05/30 06:32:24;;;;;;;3.88;2.40;;;17.20;55.60;;;;;;5065761;28;20465;-62
2022/05/30 06:34:51;;;;;;;3.97;2.63;;;17.30;56.00;;;;;;5088509;28;20186;-62
2022/05/30 06:37:16;;;;;;;4.13;3.00;;;17.60;55.50;;;;;;5088381;28;20086;-61
2022/05/30 06:39:42;;;;;;;5.55;2.80;;;17.70;54.70;;;;;;5074326;28;20024;-63
2022/05/30 06:42:13;;;;;;;4.78;3.10;;;17.80;54.60;;;;;;5083497;28;20036;-61
2022/05/30 06:44:39;;;;;;;8.75;2.80;;;17.80;53.90;;;;;;5092109;28;20401;-63
2022/05/30 06:47:10;;;;;;;4.32;3.92;;;18.20;53.20;;;;;;5060970;28;20016;-62
2022/05/30 06:49:36;;;;;;;6.32;3.22;;;19.10;53.60;;;;;;5063497;28;20347;-61
2022/05/30 06:52:02;;;;;;;3.60;2.78;;;22.40;49.30;;;;;;5088617;28;20035;-61
2022/05/30 06:54:27;;;;;;;4.32;3.17;;;25.80;40.70;;;;;;5090037;28;20127;-62
2022/05/30 06:59:54;;;;;;;5.50;3.10;;;31.70;31.70;;;;;;5013464;28;20060;-63
2022/05/30 07:02:20;;;;;;;6.05;2.80;;;34.00;29.00;;;;;;5076189;28;20072;-62
2022/05/30 07:04:46;;;;;;;5.95;3.35;;;35.00;27.70;;;;;;5077116;28;20021;-62
2022/05/30 07:07:11;;;;;;;4.28;2.67;;;36.30;27.20;;;;;;5067719;28;20325;-64
2022/05/30 07:09:38;;;;;;;6.00;2.53;;;38.20;26.00;;;;;;5077144;28;20434;-61
2022/05/30 07:12:06;;;;;;;3.42;2.45;;;39.50;24.60;;;;;;5077897;28;20055;-62
2022/05/30 07:14:32;;;;;;;5.32;2.45;;;40.30;24.20;;;;;;5059028;28;20063;-60
2022/05/30 07:16:58;;;;;;;4.63;2.50;;;40.90;23.50;;;;;;5090670;28;20371;-62
2022/05/30 07:19:23;;;;;;;3.17;2.50;;;40.60;23.20;;;;;;5091001;28;20358;-63
2022/05/30 07:21:49;;;;;;;3.75;2.65;;;41.40;23.20;;;;;;5063348;28;20418;-63
2022/05/30 07:24:15;;;;;;;6.88;2.78;;;42.80;22.80;;;;;;5066975;28;20020;-62
2022/05/30 07:26:40;;;;;;;3.25;2.75;;;44.20;22.20;;;;;;5087170;28;20065;-62
2022/05/30 07:29:07;;;;;;;5.68;2.60;;;45.60;21.70;;;;;;5090132;28;20422;-62
2022/05/30 07:31:32;;;;;;;6.18;2.65;;;46.10;21.20;;;;;;5062345;28;20518;-60
2022/05/30 07:33:58;;;;;;;4.95;2.97;;;46.20;20.90;;;;;;5058277;28;20123;-63
2022/05/30 07:36:30;;;;;;;3.92;2.80;;;46.30;20.60;;;;;;5071836;28;20473;-62
2022/05/30 07:38:56;;;;;;;5.55;2.60;;;46.20;20.60;;;;;;5067405;28;20024;-63
2022/05/30 07:41:23;;;;;;;7.18;2.85;;;46.50;20.40;;;;;;5071331;28;20025;-61
2022/05/30 07:43:49;;;;;;;2.95;2.45;;;46.50;20.20;;;;;;5079912;28;20029;-62
2022/05/30 07:46:16;;;;;;;4.10;2.70;;;47.10;19.90;;;;;;5070543;28;20040;-62
2022/05/30 07:48:43;;;;;;;6.63;2.38;;;47.40;19.80;;;;;;5080503;28;20062;-62
2022/05/30 07:51:10;;;;;;;5.07;2.85;;;47.90;19.90;;;;;;5070490;28;20032;-63
2022/05/30 07:53:37;;;;;;;4.80;2.75;;;48.50;19.60;;;;;;5058156;28;20032;-60
2022/05/30 07:56:06;;;;;;;8.30;3.00;;;49.30;19.20;;;;;;5065720;28;20028;-61
2022/05/30 07:58:32;;;;;;;5.90;3.05;;;50.20;19.10;;;;;;5074554;28;20031;-61
2022/05/30 08:00:58;;;;;;;5.57;2.80;;;51.00;18.80;;;;;;5070261;28;20484;-64
2022/05/30 08:03:26;;;;;;;3.55;2.60;;;51.50;18.70;;;;;;5088107;28;20161;-65
2022/05/30 08:06:01;;;;;;;20.13;4.30;;;51.90;18.60;;;;;;5088700;28;20020;-64
2022/05/30 08:08:27;;;;;;;7.88;3.67;;;52.40;18.40;;;;;;5081696;28;20104;-63
2022/05/30 08:10:53;;;;;;;6.35;3.17;;;52.60;18.30;;;;;;5072214;28;20059;-62
2022/05/30 08:13:19;;;;;;;11.52;3.30;;;52.80;18.30;;;;;;5088049;28;20054;-63
2022/05/30 08:15:45;;;;;;;9.45;3.53;;;53.00;18.10;;;;;;5083731;28;20020;-63
2022/05/30 08:18:15;;;;;;;6.88;4.10;;;53.10;18.10;;;;;;5088780;28;20353;-63
2022/05/30 08:20:41;;;;;;;7.57;3.53;;;53.30;18.00;;;;;;5087617;28;20032;-65
2022/05/30 08:23:07;;;;;;;4.85;3.20;;;53.30;17.90;;;;;;5078492;28;20148;-65
2022/05/30 08:25:33;;;;;;;9.20;2.72;;;53.30;17.90;;;;;;5087262;28;20039;-63
2022/05/30 08:27:58;;;;;;;3.50;2.78;;;53.70;17.70;;;;;;5064429;28;20593;-63
2022/05/30 08:30:24;;;;;;;3.80;3.20;;;53.90;17.50;;;;;;5085942;28;20028;-62
2022/05/30 08:32:50;;;;;;;10.57;3.67;;;53.90;17.40;;;;;;5083667;28;20491;-62
2022/05/30 08:35:18;;;;;;;8.38;3.13;;;52.50;17.60;;;;;;5092786;28;20032;-60
2022/05/30 08:37:45;;;;;;;13.27;3.42;;;51.60;17.80;;;;;;5064642;28;20043;-61
2022/05/30 08:43:19;;;;;;;3.33;2.17;;;50.40;18.10;;;;;;5086012;28;20495;-63
2022/05/30 08:45:46;;;;;;;10.57;3.05;;;49.40;18.20;;;;;;5090530;28;20071;-63
2022/05/30 08:48:17;;;;;;;8.63;2.80;;;48.40;18.30;;;;;;5089483;28;20032;-63
2022/05/30 08:51:23;;;;;;;14.45;4.45;;;48.30;18.40;;;;;;5074438;28;20119;-64
2022/05/30 08:54:22;;;;;;;5.10;2.38;;;48.20;18.60;;;;;;5079452;28;20031;-62
2022/05/30 08:56:52;;;;;;;9.25;2.90;;;46.90;18.40;;;;;;5088721;28;20016;-64
2022/05/30 08:59:47;;;;;;;6.68;3.00;;;43.90;19.40;;;;;;5079097;28;20326;-63
2022/05/30 09:02:45;;;;;;;5.10;2.08;;;41.60;20.30;;;;;;5079212;28;20108;-63
2022/05/30 09:05:22;;;;;;;3.05;1.60;;;41.00;20.50;;;;;;5058045;28;20404;-63
2022/05/30 09:07:52;;;;;;;4.43;1.50;;;39.00;21.00;;;;;;5085980;28;20085;-63
2022/05/30 09:10:40;;;;;;;3.60;1.60;;;36.70;22.00;;;;;;5090821;28;20055;-63
2022/05/30 09:13:28;;;;;;;15.55;2.53;;;34.60;23.10;;;;;;5086750;28;20048;-62
2022/05/30 09:16:21;;;;;;;4.20;2.22;;;33.00;24.00;;;;;;5077039;28;20020;-64
2022/05/30 09:18:53;;;;;;;5.43;1.70;;;31.80;24.70;;;;;;5088724;28;20020;-62
2022/05/30 09:21:21;;;;;;;5.18;1.85;;;30.60;25.50;;;;;;5071803;28;20020;-61
2022/05/30 09:23:48;;;;;;;4.47;1.80;;;29.90;26.00;;;;;;5071575;28;20073;-62
2022/05/30 09:26:28;;;;;;;8.02;1.65;;;29.40;26.30;;;;;;5092599;28;20512;-64
2022/05/30 09:29:00;;;;;;;4.13;2.05;;;29.00;26.70;;;;;;5085912;28;20078;-65
2022/05/30 09:31:26;;;;;;;5.20;1.85;;;28.80;26.90;;;;;;5069781;28;20035;-64
2022/05/30 09:34:00;;;;;;;10.68;2.47;;;28.60;27.10;;;;;;5064172;28;20032;-63
2022/05/30 09:36:30;;;;;;;7.20;2.20;;;28.50;27.10;;;;;;5060655;28;20160;-62
2022/05/30 09:38:57;;;;;;;10.90;5.00;;;28.40;27.20;;;;;;5076857;28;20035;-63
2022/05/30 09:41:40;;;;;;;6.05;1.80;;;28.10;27.30;;;;;;5088163;28;20040;-63
2022/05/30 09:44:18;;;;;;;5.07;1.80;;;27.60;27.60;;;;;;5084360;28;20028;-63
2022/05/30 09:46:50;;;;;;;5.60;2.20;;;27.30;27.80;;;;;;5058301;28;20033;-62
2022/05/30 09:49:22;;;;;;;7.35;2.20;;;27.20;28.20;;;;;;5087290;28;20020;-62
2022/05/30 09:51:51;;;;;;;7.55;2.40;;;27.30;28.00;;;;;;5080062;28;20060;-63
2022/05/30 09:54:23;;;;;;;4.65;2.20;;;27.30;27.90;;;;;;5086886;28;20441;-64
2022/05/30 09:56:52;;;;;;;8.60;2.55;;;27.40;27.80;;;;;;5085757;28;20024;-62
2022/05/30 09:59:24;;;;;;;9.57;2.92;;;27.50;27.70;;;;;;5090620;28;20035;-64
2022/05/30 10:01:52;;;;;;;21.48;3.17;;;27.40;27.50;;;;;;5077573;28;20071;-63
2022/05/30 10:04:41;;;;;;;5.18;1.83;;;27.20;27.70;;;;;;5055129;28;20020;-63
2022/05/30 10:07:17;;;;;;;8.32;2.50;;;26.90;28.40;;;;;;5069147;28;20054;-61
2022/05/30 10:10:00;;;;;;;9.07;1.70;;;26.60;28.40;;;;;;5065599;28;20081;-63
2022/05/30 10:12:30;;;;;;;6.25;2.53;;;26.70;28.80;;;;;;5073022;28;20556;-63
2022/05/30 10:14:56;;;;;;;8.93;5.00;;;26.80;28.20;;;;;;5084623;28;20107;-63
2022/05/30 10:17:32;;;;;;;16.23;12.10;;;26.90;28.40;;;;;;5086911;28;20035;-62
2022/05/30 10:20:01;;;;;;;6.35;3.88;;;27.10;29.00;;;;;;5085391;28;20480;-63
2022/05/30 10:28:50;;;;;;;5.43;3.50;;;26.50;29.80;;;;;;5086092;28;20504;-66
2022/05/30 10:31:50;;;;;;;5.72;3.03;;;26.50;30.20;;;;;;5088678;28;20024;-63
2022/05/30 10:34:19;;;;;;;10.93;3.40;;;26.50;29.60;;;;;;5066481;28;20115;-62
2022/05/30 10:37:12;;;;;;;5.30;2.55;;;26.30;29.60;;;;;;5080098;28;20035;-62
2022/05/30 10:39:41;;;;;;;8.52;4.03;;;26.10;29.30;;;;;;5074020;28;20028;-63
2022/05/30 10:42:23;;;;;;;15.30;10.00;;;25.90;29.70;;;;;;5084577;28;20086;-62
2022/05/30 10:45:06;;;;;;;5.55;2.15;;;25.80;29.60;;;;;;5070452;28;20446;-64
2022/05/30 10:47:40;;;;;;;9.63;2.40;;;25.50;29.70;;;;;;5089971;28;20219;-65
2022/05/30 10:50:13;;;;;;;6.28;2.90;;;25.10;30.00;;;;;;5075956;28;20102;-64
2022/05/30 10:52:46;;;;;;;8.27;2.70;;;25.00;30.30;;;;;;5091214;28;20436;-64
2022/05/30 10:55:20;;;;;;;6.78;3.88;;;25.00;30.50;;;;;;5083677;28;20032;-61
2022/05/30 10:57:56;;;;;;;5.28;2.58;;;25.20;30.10;;;;;;5090484;28;20115;-64
2022/05/30 11:00:28;;;;;;;3.97;2.15;;;25.10;30.20;;;;;;5076498;28;20477;-64
2022/05/30 11:03:19;;;;;;;5.53;2.63;;;24.90;30.20;;;;;;5067821;28;20093;-61
2022/05/30 11:06:14;;;;;;;4.63;2.08;;;24.80;30.30;;;;;;5068056;28;20047;-63
2022/05/30 11:09:01;;;;;;;5.35;2.08;;;24.60;30.40;;;;;;5055253;28;20032;-64
2022/05/30 11:11:48;;;;;;;8.32;3.17;;;24.50;30.70;;;;;;5086106;28;20016;-64
2022/05/30 11:15:01;;;;;;;6.00;2.08;;;24.80;30.90;;;;;;5066657;28;20053;-65
2022/05/30 11:17:53;;;;;;;16.00;2.42;;;25.30;30.20;;;;;;5041243;28;20040;-64
2022/05/30 11:20:29;;;;;;;7.38;2.15;;;25.80;29.70;;;;;;5032032;28;20545;-64
2022/05/30 11:22:56;;;;;;;25.58;11.40;;;26.10;29.10;;;;;;5050641;28;20107;-62
2022/05/30 11:25:43;;;;;;;4.45;2.55;;;26.10;29.10;;;;;;5075888;28;20051;-64
2022/05/30 11:28:28;;;;;;;6.43;2.10;;;26.10;28.80;;;;;;5085370;28;20057;-64
2022/05/30 11:31:02;;;;;;;6.60;2.10;;;25.80;29.10;;;;;;5087357;28;20036;-63
2022/05/30 11:33:41;;;;;;;5.90;2.95;;;25.80;29.10;;;;;;5088319;28;20059;-64
2022/05/30 11:36:19;;;;;;;5.70;2.60;;;25.80;29.30;;;;;;5068539;28;20183;-65
2022/05/30 11:38:51;;;;;;;3.85;2.28;;;25.80;29.20;;;;;;5081771;28;20040;-64
2022/05/30 11:41:23;;;;;;;6.75;2.22;;;25.60;29.20;;;;;;5087974;28;20111;-65
2022/05/30 11:44:14;;;;;;;10.63;2.53;;;25.40;29.60;;;;;;5086205;28;20169;-64
2022/05/30 11:47:01;;;;;;;8.38;2.78;;;25.20;29.70;;;;;;5050992;28;20102;-65
2022/05/30 11:49:29;;;;;;;14.13;2.90;;;25.30;29.90;;;;;;5052850;28;20056;-64
2022/05/30 11:52:23;;;;;;;10.48;3.00;;;25.20;29.60;;;;;;5047116;28;20017;-61
2022/05/30 11:55:00;;;;;;;15.73;3.00;;;24.70;30.00;;;;;;5051614;28;20437;-63
2022/05/30 11:57:25;;;;;;;4.82;2.30;;;24.60;30.30;;;;;;5066272;28;20527;-63
2022/05/30 12:00:10;;;;;;;7.38;2.40;;;24.40;30.40;;;;;;5064108;28;20136;-65
2022/05/30 12:02:56;;;;;;;7.07;2.40;;;24.10;31.10;;;;;;5060752;28;20382;-64
2022/05/30 12:05:25;;;;;;;7.78;3.35;;;24.00;31.30;;;;;;5057410;28;20024;-66
2022/05/30 12:08:17;;;;;;;10.10;3.03;;;24.10;31.30;;;;;;5036036;28;20021;-66
2022/05/30 12:10:48;;;;;;;4.80;2.63;;;24.20;31.30;;;;;;5053938;28;20025;-63
2022/05/30 12:13:51;;;;;;;6.38;3.03;;;24.30;31.00;;;;;;5066345;28;20108;-66
2022/05/30 12:16:29;;;;;;;11.50;3.20;;;24.40;30.80;;;;;;5066575;28;20032;-64
2022/05/30 12:24:34;;;;;;;7.70;3.33;;;24.60;30.40;;;;;;5069675;28;20129;-64
2022/05/30 12:27:04;;;;;;;8.75;3.13;;;24.40;31.00;;;;;;5062509;28;20072;-64
2022/05/30 12:29:39;;;;;;;9.20;3.63;;;24.20;31.30;;;;;;5066627;28;20021;-63
2022/05/30 12:32:36;;;;;;;9.73;3.65;;;24.20;31.40;;;;;;5034512;28;20036;-64
2022/05/30 12:35:14;;;;;;;12.27;4.47;;;24.30;31.40;;;;;;5052548;28;20462;-63
2022/05/30 12:37:45;;;;;;;7.28;2.90;;;24.40;31.20;;;;;;5053737;28;20035;-63
2022/05/30 12:40:13;;;;;;;6.18;3.50;;;24.70;30.90;;;;;;5059067;28;20033;-63
2022/05/30 12:42:43;;;;;;;8.57;2.83;;;24.90;30.60;;;;;;5060489;28;20060;-63
2022/05/30 12:45:22;;;;;;;13.73;2.65;;;24.90;30.70;;;;;;5049823;28;20106;-62
2022/05/30 12:47:54;;;;;;;6.90;2.53;;;24.80;30.90;;;;;;5082828;28;20044;-64
2022/05/30 12:50:34;;;;;;;10.93;2.97;;;24.70;30.80;;;;;;5077163;28;20406;-63
2022/05/30 12:53:05;;;;;;;4.30;2.30;;;24.60;30.80;;;;;;5078622;28;20381;-62
2022/05/30 12:55:42;;;;;;;7.85;2.65;;;24.50;31.20;;;;;;5085379;28;20135;-64
2022/05/30 12:58:10;;;;;;;15.27;2.53;;;24.60;31.30;;;;;;5067372;28;20481;-63
2022/05/30 13:00:42;;;;;;;7.05;2.58;;;24.70;31.80;;;;;;5064978;28;20032;-63
2022/05/30 13:03:30;;;;;;;9.50;2.85;;;24.80;31.10;;;;;;5086972;28;20473;-63
2022/05/30 13:06:14;;;;;;;7.53;3.08;;;24.80;31.20;;;;;;5068333;28;20073;-63
2022/05/30 13:08:55;;;;;;;14.55;8.02;;;25.10;31.10;;;;;;5065339;28;20096;-64
2022/05/30 13:11:39;;;;;;;4.68;2.25;;;25.20;31.50;;;;;;5085241;28;20028;-63
2022/05/30 13:14:40;;;;;;;6.18;2.85;;;25.30;31.50;;;;;;5074621;28;20020;-63
2022/05/30 13:17:09;;;;;;;12.85;1.92;;;25.30;31.30;;;;;;5077326;28;20118;-62
2022/05/30 13:19:45;;;;;;;4.53;1.95;;;25.30;31.00;;;;;;5062775;28;20024;-63
2022/05/30 13:22:12;;;;;;;6.18;1.98;;;25.20;31.30;;;;;;5078202;28;20020;-64
2022/05/30 13:24:38;;;;;;;5.35;2.05;;;25.20;31.50;;;;;;5081995;28;20409;-63
2022/05/30 13:27:05;;;;;;;6.75;2.38;;;25.30;31.10;;;;;;5066826;28;20044;-62
2022/05/30 13:29:32;;;;;;;5.63;2.10;;;25.50;31.00;;;;;;5072151;28;20027;-64
2022/05/30 13:31:58;;;;;;;6.03;2.35;;;25.80;31.00;;;;;;5085421;28;20028;-64
2022/05/30 13:34:28;;;;;;;7.57;2.25;;;25.80;30.90;;;;;;5083545;28;20085;-65